Time;durP1;ratioP1;P1;durP2;ratioP2;P2;SDS_P1;SDS_P2;PMS_P1;PMS_P2;Temp;Humidity;BMP_temperature;BMP_pressure;BME280_temperature;BME280_humidity;BME280_pressure;Samples;Min_cycle;Max_cycle;Signal;HPM_P1;HPM_P2
2023/04/14 00:00:53;;;;;;;43.50;23.40;;;;;;;12.80;86.19;97955.85;135664;1278;22569;-63
2023/04/14 00:03:56;;;;;;;41.00;23.30;;;;;;;12.83;86.22;97955.28;135658;1278;26488;-62
2023/04/14 00:06:58;;;;;;;42.00;22.20;;;;;;;12.77;87.56;97951.59;135663;1278;22534;-62
2023/04/14 00:10:01;;;;;;;43.80;23.20;;;;;;;12.69;87.50;97952.52;135650;1278;25483;-63
2023/04/14 00:13:03;;;;;;;42.10;22.90;;;;;;;12.61;87.48;97954.09;135654;1278;22523;-62
2023/04/14 00:16:07;;;;;;;42.90;21.90;;;;;;;12.71;86.02;97950.14;135665;1278;22541;-62
2023/04/14 00:19:09;;;;;;;38.60;20.80;;;;;;;12.78;85.44;97943.58;135619;1278;24177;-62
2023/04/14 00:22:12;;;;;;;41.90;23.10;;;;;;;12.78;84.79;97939.21;135700;1261;22550;-63
2023/04/14 00:25:14;;;;;;;43.30;24.00;;;;;;;12.74;84.53;97935.48;135667;1278;24405;-62
2023/04/14 00:28:17;;;;;;;44.50;24.90;;;;;;;12.72;84.45;97936.15;135696;1278;24301;-63
2023/04/14 00:31:19;;;;;;;45.80;24.70;;;;;;;12.61;84.45;97938.98;135692;1278;22602;-63
2023/04/14 00:34:21;;;;;;;42.20;23.70;;;;;;;12.62;84.80;97938.95;135704;1278;22546;-63
2023/04/14 00:37:24;;;;;;;;;;;;;;;12.42;85.47;97937.61;135657;1278;22642;-62
2023/04/14 00:40:26;;;;;;;46.30;24.60;;;;;;;12.44;85.21;97934.46;135634;1278;22548;-63
2023/04/14 00:43:29;;;;;;;41.50;23.20;;;;;;;12.49;85.20;97929.72;135644;1260;22546;-63
2023/04/14 00:46:31;;;;;;;41.60;22.70;;;;;;;12.59;84.47;97926.05;135642;1261;22529;-62
2023/04/14 00:49:33;;;;;;;46.60;24.00;;;;;;;12.59;84.44;97930.39;135654;1278;22548;-63
2023/04/14 00:52:36;;;;;;;47.20;24.80;;;;;;;12.44;84.83;97928.81;135655;1278;22554;-62
2023/04/14 00:55:38;;;;;;;44.90;24.40;;;;;;;12.36;84.11;97928.79;135655;1278;25431;-63
2023/04/14 00:58:40;;;;;;;45.10;23.90;;;;;;;12.30;84.15;97926.49;135698;1277;22537;-62
2023/04/14 01:01:43;;;;;;;44.10;23.90;;;;;;;12.25;84.01;97925.46;135686;1277;22549;-62
2023/04/14 01:04:45;;;;;;;44.40;25.60;;;;;;;12.10;84.69;97923.02;135693;1277;22544;-63
2023/04/14 01:07:47;;;;;;;;;;;;;;;12.06;85.35;97921.73;135683;1277;22514;-63
2023/04/14 01:10:50;;;;;;;46.80;25.10;;;;;;;11.98;85.52;97920.52;135679;1277;22526;-62
2023/04/14 01:13:52;;;;;;;39.60;21.40;;;;;;;11.94;85.24;97919.23;135702;1254;24215;-63
2023/04/14 01:16:55;;;;;;;44.00;24.40;;;;;;;11.83;85.83;97914.84;135662;1277;22536;-63
2023/04/14 01:19:57;;;;;;;48.20;26.30;;;;;;;11.93;85.80;97915.81;135661;1260;22520;-62
2023/04/14 01:22:59;;;;;;;46.70;22.80;;;;;;;11.98;85.30;97919.42;135696;1277;22522;-62
2023/04/14 01:26:02;;;;;;;43.90;24.20;;;;;;;11.87;85.61;97916.28;135700;1277;22545;-63
2023/04/14 01:29:04;;;;;;;53.80;27.70;;;;;;;11.85;83.91;97911.92;135685;1277;22571;-62
2023/04/14 01:32:08;;;;;;;;;;;;;;;11.87;83.06;97908.77;135673;1277;25237;-63
2023/04/14 01:35:12;;;;;;;48.90;25.00;;;;;;;11.90;82.75;97910.11;135676;1277;22531;-62
2023/04/14 01:38:14;;;;;;;53.80;27.40;;;;;;;11.86;82.91;97908.35;135722;1277;22529;-62
2023/04/14 01:41:16;;;;;;;57.50;30.20;;;;;;;11.89;83.53;97915.23;135694;1260;22541;-62
2023/04/14 01:44:20;;;;;;;56.40;29.70;;;;;;;11.79;84.10;97912.17;135690;1277;22570;-63
2023/04/14 01:47:22;;;;;;;66.80;33.00;;;;;;;11.92;83.76;97908.39;135674;1277;22523;-62
2023/04/14 01:50:25;;;;;;;56.00;29.40;;;;;;;12.09;84.12;97908.74;135702;1277;22529;-62
2023/04/14 01:53:27;;;;;;;55.00;30.00;;;;;;;12.01;84.92;97902.01;135691;1261;25440;-62
2023/04/14 01:56:30;;;;;;;56.00;28.90;;;;;;;11.96;85.91;97897.05;135686;1277;22530;-62
2023/04/14 01:59:33;;;;;;;57.90;31.90;;;;;;;11.88;87.57;97896.10;135688;1277;22703;-62
2023/04/14 02:02:36;;;;;;;55.90;31.70;;;;;;;11.84;88.34;97895.12;135684;1277;22534;-62
2023/04/14 02:05:39;;;;;;;57.80;32.50;;;;;;;11.92;87.54;97895.05;135682;1277;24303;-62
2023/04/14 02:08:41;;;;;;;64.80;35.10;;;;;;;11.94;87.94;97893.48;135709;1277;22531;-62
2023/04/14 02:11:43;;;;;;;63.20;34.20;;;;;;;12.04;87.94;97886.18;135727;1277;25368;-63
2023/04/14 02:14:46;;;;;;;66.10;34.50;;;;;;;11.98;88.66;97880.00;135677;1262;24290;-62
2023/04/14 02:17:48;;;;;;;61.90;34.20;;;;;;;11.95;90.53;97885.70;135702;1277;22526;-62
2023/04/14 02:20:51;;;;;;;70.10;34.90;;;;;;;11.95;90.64;97885.88;135684;1277;22536;-62
2023/04/14 02:23:53;;;;;;;68.70;35.40;;;;;;;12.03;90.22;97876.50;135681;1277;22530;-63
2023/04/14 02:26:56;;;;;;;66.60;35.10;;;;;;;11.97;89.10;97873.30;135682;1277;22489;-62
2023/04/14 02:29:59;;;;;;;70.20;37.50;;;;;;;11.97;89.22;97865.45;135733;1277;22547;-63
2023/04/14 02:33:01;;;;;;;70.90;36.20;;;;;;;11.90;89.36;97862.08;135721;1277;22664;-62
2023/04/14 02:36:03;;;;;;;71.40;37.20;;;;;;;11.90;89.83;97858.93;135705;1277;22530;-62
2023/04/14 02:39:06;;;;;;;73.50;37.00;;;;;;;11.95;89.56;97861.88;135695;1277;22539;-63
2023/04/14 02:42:09;;;;;;;71.50;38.20;;;;;;;12.06;89.39;97863.09;135727;1277;22785;-62
2023/04/14 02:45:12;;;;;;;72.40;38.20;;;;;;;12.09;89.93;97865.62;135697;1277;25272;-62
2023/04/14 02:48:14;;;;;;;62.70;33.40;;;;;;;12.00;92.10;97858.31;135685;1277;22562;-62
2023/04/14 02:51:17;;;;;;;;;;;;;;;12.00;92.59;97862.73;135679;1277;22515;-62
2023/04/14 02:54:19;;;;;;;78.70;39.10;;;;;;;12.04;91.26;97867.08;135660;1277;22541;-62
2023/04/14 02:57:22;;;;;;;72.80;37.80;;;;;;;11.93;90.80;97867.63;135705;1277;22536;-62
2023/04/14 03:00:24;;;;;;;68.90;36.30;;;;;;;11.97;92.94;97863.13;135705;1277;22529;-62
2023/04/14 03:03:27;;;;;;;;;;;;;;;12.04;91.45;97866.73;135684;1277;22520;-62
2023/04/14 03:06:30;;;;;;;70.20;36.90;;;;;;;12.02;91.07;97865.35;135680;1277;22532;-62
2023/04/14 03:09:32;;;;;;;71.90;37.60;;;;;;;11.95;91.52;97859.59;135690;1277;22570;-62
2023/04/14 03:12:35;;;;;;;75.20;38.80;;;;;;;11.89;90.84;97856.09;135706;1256;22539;-62
2023/04/14 03:15:37;;;;;;;76.50;41.10;;;;;;;11.91;91.12;97857.98;135696;1260;23132;-62
2023/04/14 03:18:39;;;;;;;67.50;36.50;;;;;;;12.12;89.59;97862.83;135635;1277;22523;-62
2023/04/14 03:21:42;;;;;;;71.30;38.70;;;;;;;12.21;88.70;97859.77;135707;1277;22535;-62
2023/04/14 03:24:44;;;;;;;78.50;39.00;;;;;;;12.15;88.65;97859.36;135658;1277;22524;-63
2023/04/14 03:27:46;;;;;;;67.40;36.00;;;;;;;12.24;88.33;97864.77;135698;1277;22484;-62
2023/04/14 03:30:49;;;;;;;66.00;36.70;;;;;;;12.22;88.62;97864.58;135744;1260;24228;-62
2023/04/14 03:33:54;;;;;;;72.10;37.10;;;;;;;12.27;88.65;97868.35;135711;1277;22528;-62
2023/04/14 03:36:56;;;;;;;70.30;37.20;;;;;;;12.24;89.53;97867.42;135738;1277;22604;-62
2023/04/14 03:40:00;;;;;;;69.10;36.10;;;;;;;12.32;89.13;97867.05;135686;1277;22675;-62
2023/04/14 03:43:02;;;;;;;66.80;36.00;;;;;;;12.48;88.61;97868.70;135671;1277;22550;-62
2023/04/14 03:46:04;;;;;;;;;;;;;;;12.61;88.47;97870.77;135707;1277;22627;-63
2023/04/14 03:49:09;;;;;;;69.60;37.20;;;;;;;12.63;88.78;97871.81;135704;1277;22522;-63
2023/04/14 03:52:12;;;;;;;71.70;36.10;;;;;;;12.74;88.35;97871.78;135683;1277;22578;-62
2023/04/14 03:55:14;;;;;;;69.40;36.70;;;;;;;12.77;88.34;97869.80;135702;1277;25343;-63
2023/04/14 03:58:17;;;;;;;64.00;35.70;;;;;;;12.72;88.26;97868.80;135694;1277;24867;-63
2023/04/14 04:01:19;;;;;;;63.40;35.10;;;;;;;12.77;87.65;97871.71;135706;1275;22530;-63
2023/04/14 04:04:22;;;;;;;61.00;34.00;;;;;;;12.57;88.91;97871.61;135671;1277;24368;-63
2023/04/14 04:07:25;;;;;;;75.50;36.40;;;;;;;12.52;89.69;97874.18;135697;1277;22543;-63
2023/04/14 04:10:28;;;;;;;68.10;36.20;;;;;;;12.54;88.86;97872.08;135702;1277;22532;-63
2023/04/14 04:13:31;;;;;;;65.60;35.30;;;;;;;12.26;90.89;97868.41;135718;1277;23844;-63
2023/04/14 04:16:33;;;;;;;66.10;35.50;;;;;;;12.28;90.25;97862.66;135636;1277;22523;-63
2023/04/14 04:19:35;;;;;;;63.10;34.90;;;;;;;12.29;89.71;97861.02;135717;1277;24292;-63
2023/04/14 04:22:38;;;;;;;61.70;34.30;;;;;;;12.29;88.84;97856.80;135665;1277;22526;-63
2023/04/14 04:25:40;;;;;;;62.50;33.50;;;;;;;12.29;88.94;97857.50;135680;1277;22519;-62
2023/04/14 04:28:43;;;;;;;62.70;32.20;;;;;;;12.37;88.48;97856.20;135701;1277;22552;-63
2023/04/14 04:31:45;;;;;;;58.30;31.80;;;;;;;12.50;87.88;97858.57;135714;1277;22534;-63
2023/04/14 04:34:47;;;;;;;61.30;33.10;;;;;;;12.67;87.03;97859.47;135724;1277;22569;-63
2023/04/14 04:37:50;;;;;;;59.30;32.10;;;;;;;12.74;86.34;97856.71;135736;1277;24277;-63
2023/04/14 04:40:52;;;;;;;62.50;34.80;;;;;;;12.64;86.73;97860.00;135715;1277;22603;-63
2023/04/14 04:43:55;;;;;;;60.80;33.60;;;;;;;12.85;85.89;97862.77;135722;1275;22542;-63
2023/04/14 04:46:57;;;;;;;62.40;34.00;;;;;;;12.96;85.35;97865.37;135653;1260;22543;-63
2023/04/14 04:49:59;;;;;;;58.80;30.60;;;;;;;12.97;86.19;97861.95;135701;1277;22526;-63
2023/04/14 04:53:02;;;;;;;55.50;30.80;;;;;;;13.17;85.46;97864.05;135667;1277;22527;-63
2023/04/14 04:56:04;;;;;;;56.10;30.60;;;;;;;13.04;85.71;97864.73;135704;1277;22556;-62
2023/04/14 04:59:06;;;;;;;55.60;32.10;;;;;;;13.17;85.02;97867.61;135742;1277;22534;-62
2023/04/14 05:02:09;;;;;;;58.20;31.60;;;;;;;13.29;85.26;97874.53;135705;1277;22524;-62
2023/04/14 05:05:11;;;;;;;55.10;31.10;;;;;;;13.42;84.88;97870.59;135714;1277;22560;-62
2023/04/14 05:08:14;;;;;;;53.90;29.60;;;;;;;13.53;84.02;97872.09;135699;1277;22578;-62
2023/04/14 05:11:16;;;;;;;50.00;28.60;;;;;;;13.55;84.28;97869.73;135699;1277;22523;-62
2023/04/14 05:14:19;;;;;;;50.30;26.30;;;;;;;13.77;83.59;97870.60;135716;1277;22535;-63
2023/04/14 05:17:21;;;;;;;48.40;26.90;;;;;;;14.05;82.86;97878.17;135698;1277;25419;-62
2023/04/14 05:20:24;;;;;;;49.30;27.20;;;;;;;14.37;82.26;97880.77;135675;1277;22533;-62
2023/04/14 05:23:26;;;;;;;51.20;27.40;;;;;;;14.46;82.00;97880.91;135716;1271;22540;-62
2023/04/14 05:26:30;;;;;;;;;;;;;;;14.64;81.34;97878.79;135676;1277;22537;-62
2023/04/14 05:29:32;;;;;;;47.90;27.10;;;;;;;14.73;81.55;97881.10;135690;1277;22532;-62
2023/04/14 05:32:35;;;;;;;48.70;27.50;;;;;;;15.14;80.20;97879.05;135722;1277;23925;-63
2023/04/14 05:35:37;;;;;;;48.50;26.00;;;;;;;15.29;79.25;97878.70;135725;1277;22532;-62
2023/04/14 05:38:40;;;;;;;44.70;24.30;;;;;;;15.47;78.13;97878.98;135689;1277;22534;-64
2023/04/14 05:41:42;;;;;;;48.60;24.50;;;;;;;15.57;77.63;97876.20;135734;1277;22554;-62
2023/04/14 05:44:45;;;;;;;44.10;22.50;;;;;;;15.76;77.79;97874.36;135696;1261;22638;-62
2023/04/14 05:47:47;;;;;;;38.70;21.20;;;;;;;16.02;75.99;97872.04;135718;1277;22535;-63
2023/04/14 05:50:49;;;;;;;39.40;19.80;;;;;;;16.08;75.05;97867.57;135687;1277;23871;-63
2023/04/14 05:53:52;;;;;;;;;;;;;;;16.29;74.86;97864.17;135714;1277;23996;-62
2023/04/14 05:56:55;;;;;;;40.40;20.40;;;;;;;16.47;73.98;97863.58;135669;1277;22718;-63
2023/04/14 05:59:57;;;;;;;45.40;24.10;;;;;;;16.58;73.06;97859.65;135686;1277;22527;-63
2023/04/14 06:03:00;;;;;;;;;;;;;;;16.59;72.22;97852.11;135719;1277;22501;-62
2023/04/14 06:06:03;;;;;;;37.40;18.60;;;;;;;16.46;72.34;97848.64;135654;1277;22528;-63
2023/04/14 06:09:06;;;;;;;35.80;17.20;;;;;;;16.52;70.96;97845.77;135641;1277;22531;-63
2023/04/14 06:12:08;;;;;;;;;;;;;;;16.52;69.69;97841.69;135695;1277;22508;-63
2023/04/14 06:15:10;;;;;;;31.80;14.90;;;;;;;16.78;68.87;97842.45;135705;1277;22544;-63
2023/04/14 06:18:13;;;;;;;35.20;14.30;;;;;;;16.88;68.83;97841.80;135702;1277;22530;-63
2023/04/14 06:21:15;;;;;;;31.80;13.80;;;;;;;16.96;69.15;97846.63;135677;1277;25393;-63
2023/04/14 06:24:18;;;;;;;;;;;;;;;17.30;65.80;97847.70;135708;1277;22518;-63
2023/04/14 06:27:20;;;;;;;28.00;12.50;;;;;;;17.32;66.02;97843.45;135642;1277;24247;-63
2023/04/14 06:30:23;;;;;;;;;;;;;;;17.57;66.11;97838.53;135685;1277;22509;-62
2023/04/14 06:33:25;;;;;;;29.60;12.20;;;;;;;17.91;64.56;97833.70;135725;1277;22530;-63
2023/04/14 06:36:27;;;;;;;30.40;12.20;;;;;;;18.17;64.44;97830.58;135666;1277;22528;-62
2023/04/14 06:39:30;;;;;;;;;;;;;;;18.38;63.22;97829.07;135678;1277;22544;-63
2023/04/14 06:42:32;;;;;;;26.50;10.60;;;;;;;18.43;61.46;97826.27;135689;1277;24915;-63
2023/04/14 06:45:34;;;;;;;28.60;11.10;;;;;;;18.31;61.26;97820.48;135667;1277;22541;-63
2023/04/14 06:48:37;;;;;;;;;;;;;;;18.32;61.17;97820.16;135666;1277;22501;-63
2023/04/14 06:51:39;;;;;;;23.80;8.60;;;;;;;18.26;60.38;97811.03;135683;1277;22545;-63
2023/04/14 06:54:42;;;;;;;25.20;8.80;;;;;;;18.40;58.63;97805.64;135692;1277;22538;-63
2023/04/14 06:57:44;;;;;;;25.40;9.30;;;;;;;18.44;57.71;97802.18;135680;1277;22530;-63
2023/04/14 07:00:46;;;;;;;;;;;;;;;18.55;58.21;97794.48;135709;1277;22503;-64
2023/04/14 07:03:49;;;;;;;23.40;8.20;;;;;;;18.78;59.51;97794.07;135672;1259;24255;-63
2023/04/14 07:06:52;;;;;;;29.50;10.30;;;;;;;18.91;56.43;97791.46;135733;1277;22530;-63
2023/04/14 07:09:54;;;;;;;31.10;10.00;;;;;;;18.74;53.00;97784.19;135705;1277;22567;-63
2023/04/14 07:12:56;;;;;;;;;;;;;;;18.76;54.18;97781.85;135723;1277;22504;-63
2023/04/14 07:15:59;;;;;;;25.70;9.80;;;;;;;18.92;55.24;97783.17;135721;1277;22550;-63
2023/04/14 07:19:01;;;;;;;;;;;;;;;19.19;54.44;97780.80;135683;1277;22501;-63
2023/04/14 07:22:03;;;;;;;27.70;9.40;;;;;;;19.35;53.72;97778.83;135724;1277;22529;-63
2023/04/14 07:25:06;;;;;;;;;;;;;;;19.63;53.10;97778.48;135704;1277;22502;-63
2023/04/14 07:28:08;;;;;;;26.30;8.80;;;;;;;19.91;52.36;97776.02;135663;1277;22534;-64
2023/04/14 07:31:11;;;;;;;;;;;;;;;20.21;50.71;97772.86;135660;1277;22536;-63
2023/04/14 07:34:13;;;;;;;26.10;8.30;;;;;;;20.33;50.59;97775.51;135701;1277;22549;-63
2023/04/14 07:37:16;;;;;;;23.10;7.60;;;;;;;20.50;49.68;97774.98;135605;1257;22550;-63
2023/04/14 07:40:18;;;;;;;;;;;;;;;20.58;49.11;97778.82;135667;1277;25243;-63
2023/04/14 07:43:20;;;;;;;21.10;7.00;;;;;;;20.54;47.66;97781.05;135691;1277;22527;-64
2023/04/14 07:46:23;;;;;;;20.70;6.60;;;;;;;20.36;47.41;97782.14;135717;1277;23901;-64
2023/04/14 07:49:25;;;;;;;;;;;;;;;20.46;47.51;97782.93;135675;1277;22504;-64
2023/04/14 07:52:28;;;;;;;19.80;5.80;;;;;;;20.54;47.05;97789.98;135684;1277;22532;-63
2023/04/14 07:55:30;;;;;;;;;;;;;;;20.76;45.90;97787.90;135721;1277;22507;-63
2023/04/14 07:58:33;;;;;;;21.80;6.00;;;;;;;21.10;44.80;97782.77;135695;1277;22531;-64
2023/04/14 08:01:35;;;;;;;21.70;5.00;;;;;;;21.33;45.60;97782.48;135709;1277;22557;-64
2023/04/14 08:04:37;;;;;;;20.50;5.80;;;;;;;21.60;44.40;97782.52;135649;1277;22531;-64
2023/04/14 08:07:40;;;;;;;19.10;5.50;;;;;;;21.64;43.19;97776.55;135685;1277;22538;-64
2023/04/14 08:10:42;;;;;;;20.00;5.90;;;;;;;21.86;44.41;97775.94;135666;1277;22523;-64
2023/04/14 08:13:45;;;;;;;21.00;5.90;;;;;;;21.84;42.62;97765.91;135714;1277;22527;-64
2023/04/14 08:16:48;;;;;;;17.70;4.90;;;;;;;21.88;44.37;97770.41;135670;1277;25358;-64
2023/04/14 08:19:50;;;;;;;17.10;4.90;;;;;;;22.23;43.28;97769.39;135683;1277;22519;-64
2023/04/14 08:22:53;;;;;;;14.00;4.40;;;;;;;22.28;42.12;97766.80;135700;1262;24219;-64
2023/04/14 08:25:55;;;;;;;13.40;4.40;;;;;;;22.32;41.11;97761.48;135678;1277;22564;-63
2023/04/14 08:28:57;;;;;;;17.20;4.90;;;;;;;22.33;41.32;97761.25;135637;1277;22639;-64
2023/04/14 08:32:00;;;;;;;17.00;4.70;;;;;;;22.47;41.61;97762.34;135664;1277;22532;-64
2023/04/14 08:35:02;;;;;;;16.10;4.30;;;;;;;22.65;41.98;97756.66;135677;1277;22847;-64
2023/04/14 08:38:05;;;;;;;13.60;4.40;;;;;;;22.78;40.71;97753.35;135678;1277;24386;-64
2023/04/14 08:41:07;;;;;;;13.00;3.80;;;;;;;22.67;39.74;97756.80;135664;1277;22534;-65
2023/04/14 08:44:09;;;;;;;12.80;3.80;;;;;;;22.77;39.16;97752.56;135741;1277;25255;-65
2023/04/14 08:47:12;;;;;;;14.40;3.90;;;;;;;22.93;39.90;97746.23;135705;1277;22531;-65
2023/04/14 08:50:15;;;;;;;11.60;3.70;;;;;;;23.08;39.00;97747.91;135635;1277;22739;-65
2023/04/14 08:53:17;;;;;;;11.10;3.80;;;;;;;23.00;38.19;97742.68;135610;1277;22549;-65
2023/04/14 08:56:20;;;;;;;11.00;3.70;;;;;;;22.84;37.74;97747.13;135715;1277;22530;-65
2023/04/14 08:59:22;;;;;;;12.80;4.00;;;;;;;22.86;38.13;97746.52;135680;1277;22542;-65
2023/04/14 09:02:25;;;;;;;10.80;3.70;;;;;;;23.03;37.93;97742.73;135705;1277;22527;-65
2023/04/14 09:05:27;;;;;;;11.40;3.60;;;;;;;23.21;38.09;97739.15;135694;1277;22521;-65
2023/04/14 09:08:32;;;;;;;12.50;3.70;;;;;;;23.45;37.61;97734.91;135660;1277;22527;-66
2023/04/14 09:11:35;;;;;;;12.30;3.80;;;;;;;23.61;36.86;97731.80;135685;1277;22542;-66
2023/04/14 09:14:37;;;;;;;9.40;3.30;;;;;;;23.75;37.36;97729.84;135690;1277;25235;-66
2023/04/14 09:17:40;;;;;;;11.00;3.50;;;;;;;23.94;37.09;97732.05;135707;1277;22563;-66
2023/04/14 09:20:42;;;;;;;11.30;3.50;;;;;;;24.13;36.59;97725.39;135633;1277;22527;-66
2023/04/14 09:23:45;;;;;;;11.00;3.40;;;;;;;24.26;35.46;97724.00;135677;1277;22523;-66
2023/04/14 09:26:47;;;;;;;9.00;3.20;;;;;;;24.26;34.83;97728.66;135642;1277;22791;-66
2023/04/14 09:29:50;;;;;;;12.20;3.60;;;;;;;23.69;34.74;97733.53;135668;1277;22544;-65
2023/04/14 09:32:53;;;;;;;11.30;3.50;;;;;;;23.12;34.28;97726.33;135674;1277;22543;-66
2023/04/14 09:35:55;;;;;;;10.50;3.50;;;;;;;23.04;34.56;97728.11;135700;1260;22523;-66
2023/04/14 09:38:58;;;;;;;11.60;3.70;;;;;;;23.12;34.43;97733.56;135650;1277;24224;-66
2023/04/14 09:42:00;;;;;;;10.50;3.60;;;;;;;22.97;34.93;97728.89;135712;1277;22601;-66
2023/04/14 09:45:03;;;;;;;13.40;3.60;;;;;;;22.98;34.20;97716.11;135686;1277;22531;-66
2023/04/14 09:48:06;;;;;;;10.00;3.40;;;;;;;22.92;34.63;97723.48;135701;1277;22579;-65
2023/04/14 09:51:09;;;;;;;15.50;4.30;;;;;;;23.14;34.91;97715.64;135652;1277;25422;-65
2023/04/14 09:54:11;;;;;;;9.10;3.20;;;;;;;23.32;34.32;97715.20;135699;1277;23264;-65
2023/04/14 09:57:14;;;;;;;9.90;3.20;;;;;;;23.43;34.17;97713.38;135659;1277;22527;-66
2023/04/14 10:00:16;;;;;;;9.70;3.30;;;;;;;23.73;34.09;97707.85;135695;1277;22544;-66
2023/04/14 10:03:19;;;;;;;12.60;3.60;;;;;;;23.99;34.31;97702.98;135685;1277;22535;-66
2023/04/14 10:06:21;;;;;;;8.50;3.10;;;;;;;24.26;34.27;97707.05;135677;1277;25040;-66
2023/04/14 10:44:57;;;;;;;13.70;4.00;;;;;;;22.84;35.00;97688.35;132557;1305;557982;-65
2023/04/14 10:48:00;;;;;;;14.00;3.90;;;;;;;23.74;34.51;97684.88;134572;1289;89951;-65
2023/04/14 10:51:02;;;;;;;12.50;3.60;;;;;;;23.81;34.27;97691.31;134707;1289;22546;-65
2023/04/14 10:54:04;;;;;;;15.00;4.10;;;;;;;23.96;34.26;97688.98;134685;1289;22541;-65
2023/04/14 10:57:07;;;;;;;14.10;4.10;;;;;;;23.89;34.38;97677.92;134709;1289;22548;-65
2023/04/14 11:00:09;;;;;;;15.20;4.60;;;;;;;24.02;34.51;97672.08;134696;1289;22547;-65
2023/04/14 11:03:12;;;;;;;13.90;4.30;;;;;;;23.93;34.42;97661.70;134718;1289;22530;-65
2023/04/14 11:06:15;;;;;;;13.00;3.90;;;;;;;23.94;34.51;97667.46;134689;1289;22536;-65
2023/04/14 11:09:17;;;;;;;13.70;4.20;;;;;;;23.94;34.60;97663.92;134671;1289;22562;-65
2023/04/14 11:12:19;;;;;;;15.20;4.00;;;;;;;24.04;34.94;97658.60;134877;1285;22554;-65
2023/04/14 11:15:22;;;;;;;11.00;4.10;;;;;;;24.18;34.89;97658.27;134875;1285;22551;-65
2023/04/14 11:18:24;;;;;;;14.60;4.80;;;;;;;24.32;34.33;97658.73;134868;1285;22540;-66
2023/04/14 11:21:28;;;;;;;12.80;4.40;;;;;;;24.34;33.81;97654.71;134864;1285;25434;-65
2023/04/14 11:24:31;;;;;;;11.40;3.80;;;;;;;24.12;34.46;97659.98;134875;1285;22549;-65
2023/04/14 11:27:33;;;;;;;10.70;4.00;;;;;;;24.02;34.51;97666.10;134889;1284;25310;-65
2023/04/14 11:30:36;;;;;;;13.80;4.20;;;;;;;24.07;34.60;97663.54;134877;1269;22544;-65
2023/04/14 11:33:38;;;;;;;13.50;4.10;;;;;;;23.89;34.44;97656.51;134858;1285;25389;-65
2023/04/14 11:36:41;;;;;;;12.20;3.60;;;;;;;23.59;34.40;97653.29;134843;1284;22546;-65
2023/04/14 11:39:43;;;;;;;14.10;3.90;;;;;;;23.48;34.58;97654.23;134855;1285;22536;-65
2023/04/14 11:42:46;;;;;;;13.80;3.90;;;;;;;23.55;34.64;97649.41;134873;1276;22549;-66
2023/04/14 11:45:49;;;;;;;12.00;3.90;;;;;;;23.47;34.55;97641.74;134867;1285;22523;-65
2023/04/14 11:48:51;;;;;;;20.00;7.20;;;;;;;23.41;34.84;97641.63;135561;1278;25424;-65
2023/04/14 11:51:53;;;;;;;10.00;3.60;;;;;;;23.42;34.69;97639.90;135620;1278;22543;-65
2023/04/14 11:54:56;;;;;;;13.70;4.10;;;;;;;23.43;34.53;97637.92;135633;1278;22531;-65
2023/04/14 11:57:59;;;;;;;13.70;4.10;;;;;;;23.41;34.31;97633.48;135586;1278;22557;-65
2023/04/14 12:01:01;;;;;;;13.80;3.80;;;;;;;23.13;34.42;97635.11;135595;1278;22530;-65
2023/04/14 12:04:05;;;;;;;12.60;3.50;;;;;;;22.96;34.97;97631.66;135623;1278;22527;-65
2023/04/14 12:07:07;;;;;;;11.90;3.60;;;;;;;23.32;35.27;97625.71;135603;1278;22522;-65
2023/04/14 12:10:09;;;;;;;11.90;3.70;;;;;;;23.81;34.16;97617.52;135574;1278;22588;-65
2023/04/14 12:13:12;;;;;;;12.20;3.70;;;;;;;23.89;34.19;97613.13;135637;1278;22535;-65
2023/04/14 12:16:14;;;;;;;12.90;3.90;;;;;;;24.14;34.03;97614.08;135610;1278;22644;-65
2023/04/14 12:19:17;;;;;;;11.60;3.50;;;;;;;23.96;34.10;97612.67;135609;1278;22616;-65
2023/04/14 12:22:19;;;;;;;11.40;3.50;;;;;;;23.88;33.91;97605.80;135606;1278;22542;-65
2023/04/14 12:25:21;;;;;;;11.60;3.60;;;;;;;23.82;33.72;97604.81;135591;1278;22552;-65
2023/04/14 12:28:24;;;;;;;14.80;4.20;;;;;;;23.51;33.72;97603.18;135576;1278;24069;-65
2023/04/14 12:31:26;;;;;;;12.70;4.00;;;;;;;23.45;34.12;97605.81;135611;1278;26125;-65
2023/04/14 12:34:30;;;;;;;11.60;3.70;;;;;;;23.50;33.99;97605.41;135624;1278;22535;-65
2023/04/14 12:37:32;;;;;;;14.60;4.00;;;;;;;23.41;33.86;97595.65;135625;1278;22526;-65
2023/04/14 12:40:34;;;;;;;12.30;3.80;;;;;;;23.47;34.64;97597.80;135671;1278;24555;-65
2023/04/14 12:43:37;;;;;;;16.80;4.10;;;;;;;23.71;34.16;97598.23;135616;1278;22538;-65
2023/04/14 12:46:39;;;;;;;12.40;4.10;;;;;;;23.88;33.76;97597.65;135640;1278;22531;-65
2023/04/14 12:49:42;;;;;;;14.70;4.00;;;;;;;23.59;33.91;97593.76;135636;1278;22534;-65
2023/04/14 12:52:45;;;;;;;16.00;4.30;;;;;;;23.14;34.62;97595.25;135594;1278;22547;-65
2023/04/14 12:55:47;;;;;;;12.70;3.90;;;;;;;22.97;34.49;97597.34;135610;1278;22545;-65
2023/04/14 12:58:50;;;;;;;11.50;3.80;;;;;;;22.76;33.83;97596.11;135634;1278;25278;-65
2023/04/14 13:01:52;;;;;;;11.30;3.80;;;;;;;22.53;34.82;97588.64;135624;1278;22537;-65
2023/04/14 13:04:55;;;;;;;24.10;5.50;;;;;;;22.58;33.97;97580.98;135586;1278;22667;-65
2023/04/14 13:07:57;;;;;;;20.50;6.00;;;;;;;22.49;34.36;97578.77;135578;1278;22552;-66
2023/04/14 13:11:00;;;;;;;14.20;4.60;;;;;;;22.65;34.14;97581.40;135611;1278;22795;-65
2023/04/14 13:14:02;;;;;;;18.00;4.30;;;;;;;22.58;34.36;97575.86;135628;1278;22541;-65
2023/04/14 13:17:04;;;;;;;14.40;4.40;;;;;;;22.20;34.78;97576.98;135614;1278;24358;-65
2023/04/14 13:20:07;;;;;;;15.80;4.80;;;;;;;22.16;34.69;97570.52;135613;1278;22477;-65
2023/04/14 13:23:09;;;;;;;13.20;4.30;;;;;;;22.37;34.10;97565.60;135599;1278;22632;-65
2023/04/14 13:26:12;;;;;;;11.60;3.80;;;;;;;22.55;34.33;97567.80;135654;1278;24291;-65
2023/04/14 13:29:14;;;;;;;11.20;3.90;;;;;;;22.58;33.69;97568.55;135620;1278;22531;-65
2023/04/14 13:32:17;;;;;;;13.30;3.90;;;;;;;22.45;33.95;97559.92;135582;1278;22572;-65
2023/04/14 13:35:19;;;;;;;12.10;3.70;;;;;;;22.44;33.96;97561.70;135640;1278;24372;-65
2023/04/14 13:38:24;;;;;;;11.80;4.20;;;;;;;22.44;34.05;97561.77;135584;1278;22527;-65
2023/04/14 13:41:26;;;;;;;13.90;4.20;;;;;;;22.46;34.17;97564.77;135605;1268;22531;-66
2023/04/14 13:44:29;;;;;;;16.60;5.10;;;;;;;22.41;34.86;97562.38;135641;1278;22543;-65
2023/04/14 13:47:31;;;;;;;17.90;5.10;;;;;;;22.39;34.45;97551.89;135629;1278;22548;-64
2023/04/14 13:50:34;;;;;;;16.40;5.00;;;;;;;22.42;35.05;97560.33;135653;1278;22640;-65
2023/04/14 13:53:36;;;;;;;18.70;5.80;;;;;;;22.45;35.56;97558.86;135645;1259;22551;-65
2023/04/14 13:56:39;;;;;;;20.90;6.60;;;;;;;22.46;35.87;97556.84;135639;1278;22537;-65
2023/04/14 13:59:41;;;;;;;17.80;5.80;;;;;;;22.27;36.05;97556.71;135639;1278;22535;-65
2023/04/14 14:02:44;;;;;;;17.40;5.30;;;;;;;22.12;36.47;97559.73;135644;1278;25357;-65
2023/04/14 14:05:46;;;;;;;17.30;5.60;;;;;;;22.02;36.46;97558.65;135630;1278;22530;-65
2023/04/14 14:08:48;;;;;;;17.10;5.70;;;;;;;21.87;36.57;97554.55;135630;1278;22536;-65
2023/04/14 14:11:51;;;;;;;17.40;5.70;;;;;;;21.81;37.03;97551.95;135609;1278;22527;-65
2023/04/14 14:14:53;;;;;;;19.10;6.00;;;;;;;21.83;37.38;97546.11;135612;1278;23238;-65
2023/04/14 14:17:56;;;;;;;17.40;5.90;;;;;;;22.01;37.16;97541.60;135664;1269;22559;-65
2023/04/14 14:20:58;;;;;;;16.30;6.40;;;;;;;21.89;37.47;97548.69;135692;1278;25372;-65
2023/04/14 14:24:00;;;;;;;21.50;6.20;;;;;;;22.05;37.82;97546.52;135649;1278;22535;-65
2023/04/14 14:27:03;;;;;;;19.80;5.90;;;;;;;22.30;37.63;97549.33;135644;1278;22572;-65
2023/04/14 14:30:05;;;;;;;21.90;6.00;;;;;;;22.38;37.19;97550.16;135616;1278;24268;-65
2023/04/14 14:33:07;;;;;;;18.20;6.10;;;;;;;22.41;37.58;97548.60;135672;1278;22545;-65
2023/04/14 14:36:10;;;;;;;17.40;6.20;;;;;;;22.29;37.15;97547.72;135610;1278;22527;-65